createdAt,value
2022-08-18T00:03:00.510Z,101173.41
2022-08-18T00:08:08.664Z,101165.53
2022-08-18T00:13:12.399Z,101165.53
2022-08-18T00:18:16.186Z,101165.53
2022-08-18T00:23:21.589Z,101156.75
2022-08-18T00:28:25.324Z,101163.72
2022-08-18T00:33:29.157Z,101166.34
2022-08-18T00:38:36.160Z,101183.84
2022-08-18T00:43:44.127Z,101185.59
2022-08-18T00:48:49.507Z,101187.25
2022-08-18T00:54:00.606Z,101192.53
2022-08-18T00:59:10.221Z,101191.72
2022-08-18T01:04:27.157Z,101203.94
2022-08-18T01:09:32.369Z,101195.25
2022-08-18T01:14:36.113Z,101195.25
2022-08-18T01:20:00.041Z,101205.78
2022-08-18T01:25:26.527Z,101193.53
2022-08-18T01:30:32.550Z,101183.88
2022-08-18T01:35:41.596Z,101184.75
2022-08-18T01:41:25.074Z,101181.22
2022-08-18T01:46:11.982Z,101176.78
2022-08-18T01:51:17.862Z,101181.03
2022-08-18T01:56:22.972Z,101193.16
2022-08-18T02:01:36.358Z,101177.34
2022-08-18T02:06:42.381Z,101184.22
2022-08-18T02:11:56.624Z,101185.84
2022-08-18T02:17:02.918Z,101188.41
2022-08-18T02:22:11.344Z,101183.91
2022-08-18T02:27:18.792Z,101188.22
2022-08-18T02:32:22.566Z,101182.94
2022-08-18T02:37:27.850Z,101194.25
2022-08-18T02:42:35.073Z,101182.78
2022-08-18T02:47:39.729Z,101185.28
2022-08-18T02:52:43.501Z,101192.19
2022-08-18T02:57:48.966Z,101175.56
2022-08-18T03:02:53.448Z,101192.09
2022-08-18T03:07:57.268Z,101198.09
2022-08-18T03:13:02.625Z,101184.06
2022-08-18T03:18:06.613Z,101192.75
2022-08-18T03:23:11.786Z,101183.91
2022-08-18T03:28:18.691Z,101194.34
2022-08-18T03:33:22.864Z,101205.59
2022-08-18T03:38:26.556Z,101199.44
2022-08-18T03:43:51.142Z,101197.59
2022-08-18T03:48:58.721Z,101191.44
2022-08-18T03:54:04.121Z,101195.81
2022-08-18T03:59:12.887Z,101196.56
2022-08-18T04:04:19.114Z,101201.72
2022-08-18T04:09:25.501Z,101198.19
2022-08-18T04:14:31.608Z,101206.81
2022-08-18T04:19:35.939Z,101199.81
2022-08-18T04:24:39.807Z,101206.69
2022-08-18T04:29:46.283Z,101203.16
2022-08-18T04:34:50.364Z,101205.72
2022-08-18T04:39:54.099Z,101212.66
2022-08-18T04:44:59.220Z,101214.31
2022-08-18T04:50:03.427Z,101208.25
2022-08-18T04:55:08.432Z,101215.25
2022-08-18T05:00:14.095Z,101230.06
2022-08-18T05:05:18.091Z,101224.81
2022-08-18T05:10:21.770Z,101220.50
2022-08-18T05:15:26.877Z,101228.34
2022-08-18T05:20:30.563Z,101226.63
2022-08-18T05:25:34.260Z,101230.25
2022-08-18T05:30:40.466Z,101243.28
2022-08-18T05:35:47.120Z,101235.47
2022-08-18T05:41:13.907Z,101227.63
2022-08-18T05:46:21.779Z,101230.28
2022-08-18T05:51:32.157Z,101222.47
2022-08-18T05:56:48.479Z,101232.16
2022-08-18T06:02:00.005Z,101235.75
2022-08-18T06:07:06.590Z,101235.06
2022-08-18T06:12:20.433Z,101236.87
2022-08-18T06:17:52.353Z,101238.84
2022-08-18T06:23:04.549Z,101246.78
2022-08-18T06:28:13.179Z,101245.12
2022-08-18T06:33:35.140Z,101247.94
2022-08-18T06:38:48.972Z,101242.84
2022-08-18T06:44:00.184Z,101249.09
2022-08-18T06:49:08.793Z,101250.13
2022-08-18T06:54:28.487Z,101256.38
2022-08-18T06:59:34.285Z,101249.53
2022-08-18T07:04:43.272Z,101256.69
2022-08-18T07:09:48.602Z,101260.31
2022-08-18T07:14:55.180Z,101263.13
2022-08-18T07:20:03.177Z,101262.38
2022-08-18T07:25:07.338Z,101264.28
2022-08-18T07:30:15.447Z,101260.91
2022-08-18T07:35:25.318Z,101254.06
2022-08-18T07:40:34.919Z,101256.81
2022-08-18T07:45:44.426Z,101260.44
2022-08-18T07:51:00.793Z,101259.75
2022-08-18T07:56:17.108Z,101255.44
2022-08-18T08:01:29.723Z,101265.28
2022-08-18T08:06:55.535Z,101252.34
2022-08-18T08:12:26.414Z,101252.53
2022-08-18T08:17:34.298Z,101258.81
2022-08-18T08:22:55.777Z,101264.97
2022-08-18T08:28:11.668Z,101267.69
2022-08-18T08:33:25.689Z,101262.53
2022-08-18T08:38:44.473Z,101265.38
2022-08-18T08:43:55.848Z,101264.59
2022-08-18T08:49:07.188Z,101258.53
2022-08-18T08:54:20.420Z,101272.66
2022-08-18T08:59:25.692Z,101267.47
2022-08-18T09:04:54.120Z,101284.25
2022-08-18T09:10:25.314Z,101274.69
2022-08-18T09:15:58.481Z,101270.38
2022-08-18T09:21:18.522Z,101278.28
2022-08-18T09:26:27.862Z,101280.13
2022-08-18T09:31:32.311Z,101270.47
2022-08-18T09:36:49.009Z,101276.69
2022-08-18T09:41:57.484Z,101274.91
2022-08-18T09:47:01.712Z,101267.00
2022-08-18T09:52:54.910Z,101264.22
2022-08-18T10:03:31.411Z,101252.97
2022-08-18T10:09:26.972Z,101252.97
2022-08-18T10:15:33.146Z,101254.56
2022-08-18T10:20:50.342Z,101248.28
2022-08-18T10:25:55.293Z,101245.06
2022-08-18T10:36:42.014Z,101246.13
2022-08-18T10:42:04.689Z,101229.41
2022-08-18T10:47:12.321Z,101239.56
2022-08-18T10:52:47.231Z,101229.16
2022-08-18T10:58:16.911Z,101236.84
2022-08-18T11:03:52.246Z,101241.25
2022-08-18T11:09:02.487Z,101234.25
2022-08-18T11:14:20.114Z,101235.22
2022-08-18T11:19:24.681Z,101234.47
2022-08-18T11:24:32.076Z,101226.03
2022-08-18T11:29:37.903Z,101222.88
2022-08-18T11:34:52.056Z,101207.78
2022-08-18T11:40:00.614Z,101200.69
2022-08-18T11:45:12.094Z,101198.66
2022-08-18T11:50:27.054Z,101200.19
2022-08-18T11:55:34.526Z,101190.50
2022-08-18T12:00:44.155Z,101188.97
2022-08-18T12:11:27.259Z,101178.16
2022-08-18T12:16:37.788Z,101181.47
2022-08-18T12:21:43.284Z,101192.56
2022-08-18T12:26:52.157Z,101182.19
2022-08-18T12:31:57.666Z,101188.09
2022-08-18T12:37:02.314Z,101179.87
2022-08-18T12:42:15.816Z,101194.25
2022-08-18T12:47:21.964Z,101192.34
2022-08-18T12:52:25.869Z,101198.69
2022-08-18T12:57:52.345Z,101194.53
2022-08-18T13:02:54.929Z,101200.91
2022-08-18T13:08:04.364Z,101208.53
2022-08-18T13:13:09.934Z,101210.50
2022-08-18T13:18:14.579Z,101215.97
2022-08-18T13:23:24.048Z,101227.94
2022-08-18T13:28:33.580Z,101223.59
2022-08-18T13:33:56.717Z,101226.44
2022-08-18T13:39:03.909Z,101220.53
2022-08-18T13:44:09.339Z,101223.25
2022-08-18T13:49:18.517Z,101217.50
2022-08-18T13:54:31.658Z,101217.94
2022-08-18T13:59:46.693Z,101222.56
2022-08-18T14:04:51.795Z,101220.47
2022-08-18T14:09:55.901Z,101192.47
2022-08-18T14:15:01.277Z,101191.69
2022-08-18T14:20:27.351Z,101193.69
2022-08-18T14:25:49.104Z,101195.25
2022-08-18T14:30:55.278Z,101188.63
2022-08-18T14:36:06.678Z,101178.28
2022-08-18T14:41:15.775Z,101176.66
2022-08-18T14:51:27.136Z,101162.22
2022-08-18T14:56:33.388Z,101159.16
2022-08-18T15:01:44.079Z,101167.19
2022-08-18T15:06:56.389Z,101160.78
2022-08-18T15:12:01.380Z,101163.31
2022-08-18T15:17:11.878Z,101153.56
2022-08-18T15:22:35.901Z,101160.75
2022-08-18T15:27:42.759Z,101165.37
2022-08-18T15:32:50.500Z,101167.38
2022-08-18T15:37:55.261Z,101162.31
2022-08-18T15:43:02.294Z,101179.13
2022-08-18T15:48:08.140Z,101174.56
2022-08-18T15:53:13.379Z,101172.41
2022-08-18T15:58:22.441Z,101166.38
2022-08-18T16:03:27.701Z,101160.56
2022-08-18T16:08:33.024Z,101156.28
2022-08-18T16:13:37.057Z,101159.22
2022-08-18T16:18:42.294Z,101155.06
2022-08-18T16:23:48.250Z,101157.03
2022-08-18T16:28:53.409Z,101150.53
2022-08-18T16:33:59.335Z,101159.53
2022-08-18T16:39:03.259Z,101161.41
2022-08-18T16:44:07.272Z,101168.44
2022-08-18T16:49:12.464Z,101152.72
2022-08-18T16:54:16.442Z,101154.84
2022-08-18T16:59:37.709Z,101158.03
2022-08-18T17:04:42.788Z,101159.44
2022-08-18T17:09:46.607Z,101150.12
2022-08-18T17:14:52.126Z,101162.03
2022-08-18T17:19:57.335Z,101152.03
2022-08-18T17:25:03.506Z,101152.09
2022-08-18T17:30:12.673Z,101150.81
2022-08-18T17:35:23.535Z,101144.50
2022-08-18T17:40:39.148Z,101153.84
2022-08-18T17:45:45.571Z,101151.53
2022-08-18T17:51:26.035Z,101143.00
2022-08-18T17:56:36.606Z,101145.97
2022-08-18T18:01:43.304Z,101145.63
2022-08-18T18:06:49.638Z,101145.72
2022-08-18T18:11:53.415Z,101142.53
2022-08-18T18:17:02.843Z,101148.16
2022-08-18T18:22:11.096Z,101137.69
2022-08-18T18:27:27.712Z,101145.03
2022-08-18T18:32:34.527Z,101137.16
2022-08-18T18:37:47.615Z,101136.44
2022-08-18T18:42:51.673Z,101137.56
2022-08-18T18:48:05.457Z,101141.31
2022-08-18T18:53:29.054Z,101145.87
2022-08-18T18:58:44.295Z,101154.03
2022-08-18T19:03:58.960Z,101159.59
2022-08-18T19:09:13.722Z,101156.09
2022-08-18T19:14:25.096Z,101158.06
2022-08-18T19:19:36.996Z,101160.78
2022-08-18T19:24:53.513Z,101157.38
2022-08-18T19:30:01.381Z,101170.69
2022-08-18T19:35:12.283Z,101166.34
2022-08-18T19:40:22.793Z,101176.16
2022-08-18T19:45:34.434Z,101173.53
2022-08-18T19:50:43.383Z,101165.66
2022-08-18T19:56:04.622Z,101171.84
2022-08-18T20:01:20.857Z,101171.03
2022-08-18T20:06:45.866Z,101164.91
2022-08-18T20:12:03.495Z,101166.75
2022-08-18T20:17:16.879Z,101174.69
2022-08-18T20:22:36.049Z,101168.53
2022-08-18T20:27:43.158Z,101169.41
2022-08-18T20:33:08.642Z,101172.94
2022-08-18T20:38:22.359Z,101178.22
2022-08-18T20:43:32.114Z,101184.38
2022-08-18T20:48:48.481Z,101181.75
2022-08-18T20:54:03.751Z,101178.25
2022-08-18T20:59:22.596Z,101189.63
2022-08-18T21:04:51.971Z,101201.88
2022-08-18T21:10:00.406Z,101200.09
2022-08-18T21:15:17.713Z,101206.22
2022-08-18T21:20:25.203Z,101206.22
2022-08-18T21:25:29.045Z,101200.94
2022-08-18T21:30:34.387Z,101213.19
2022-08-18T21:35:39.402Z,101200.81
2022-08-18T21:40:47.948Z,101192.91
2022-08-18T21:45:59.296Z,101199.84
2022-08-18T21:51:03.179Z,101209.44
2022-08-18T21:56:08.847Z,101219.06
2022-08-18T22:01:21.841Z,101212.87
2022-08-18T22:06:35.876Z,101219.84
2022-08-18T22:12:01.750Z,101225.97
2022-08-18T22:17:42.067Z,101222.41
2022-08-18T22:23:00.091Z,101218.84
2022-08-18T22:28:04.087Z,101213.53
2022-08-18T22:33:09.200Z,101209.97
2022-08-18T22:38:15.563Z,101217.81
2022-08-18T22:43:19.486Z,101222.12
2022-08-18T22:48:25.551Z,101217.63
2022-08-18T22:53:30.093Z,101222.88
2022-08-18T22:58:33.954Z,101221.06
2022-08-18T23:03:42.387Z,101221.84
2022-08-18T23:08:54.732Z,101210.41
2022-08-18T23:14:01.093Z,101212.06
2022-08-18T23:19:06.299Z,101224.28
2022-08-18T23:24:11.970Z,101219.84
2022-08-18T23:29:16.328Z,101223.28
2022-08-18T23:34:23.943Z,101223.22
2022-08-18T23:39:29.359Z,101212.69
2022-08-18T23:44:33.563Z,101200.41
2022-08-18T23:49:38.944Z,101205.56
2022-08-18T23:54:42.815Z,101211.66
2022-08-18T23:59:46.595Z,101224.72
